sensor_id;sensor_type;location;lat;lon;timestamp;P1;durP1;ratioP1;P2;durP2;ratioP2
9248;SDS011;4660;41.768;26.198;2023-12-28T00:00:46;14.03;;;9.07;;
9248;SDS011;4660;41.768;26.198;2023-12-28T00:03:13;20.07;;;8.33;;
9248;SDS011;4660;41.768;26.198;2023-12-28T00:05:38;12.60;;;8.13;;
9248;SDS011;4660;41.768;26.198;2023-12-28T00:08:04;11.37;;;7.60;;
9248;SDS011;4660;41.768;26.198;2023-12-28T00:10:29;10.50;;;6.97;;
9248;SDS011;4660;41.768;26.198;2023-12-28T00:12:55;10.90;;;7.10;;
9248;SDS011;4660;41.768;26.198;2023-12-28T00:15:21;26.13;;;13.17;;
9248;SDS011;4660;41.768;26.198;2023-12-28T00:17:46;30.73;;;16.07;;
9248;SDS011;4660;41.768;26.198;2023-12-28T00:20:12;22.97;;;12.80;;
9248;SDS011;4660;41.768;26.198;2023-12-28T00:22:38;30.10;;;15.00;;
9248;SDS011;4660;41.768;26.198;2023-12-28T00:25:04;25.10;;;15.30;;
9248;SDS011;4660;41.768;26.198;2023-12-28T00:27:29;24.57;;;15.20;;
9248;SDS011;4660;41.768;26.198;2023-12-28T00:29:55;20.27;;;12.57;;
9248;SDS011;4660;41.768;26.198;2023-12-28T00:32:21;20.73;;;12.10;;
9248;SDS011;4660;41.768;26.198;2023-12-28T00:34:46;18.67;;;11.00;;
9248;SDS011;4660;41.768;26.198;2023-12-28T00:37:12;24.50;;;13.30;;
9248;SDS011;4660;41.768;26.198;2023-12-28T00:39:37;27.00;;;12.07;;
9248;SDS011;4660;41.768;26.198;2023-12-28T00:42:04;24.10;;;11.50;;
9248;SDS011;4660;41.768;26.198;2023-12-28T00:44:30;18.57;;;11.10;;
9248;SDS011;4660;41.768;26.198;2023-12-28T00:46:55;21.80;;;13.03;;
9248;SDS011;4660;41.768;26.198;2023-12-28T00:49:20;23.20;;;15.30;;
9248;SDS011;4660;41.768;26.198;2023-12-28T00:51:46;22.07;;;13.03;;
9248;SDS011;4660;41.768;26.198;2023-12-28T00:54:11;21.10;;;11.97;;
9248;SDS011;4660;41.768;26.198;2023-12-28T00:56:37;21.53;;;11.73;;
9248;SDS011;4660;41.768;26.198;2023-12-28T00:59:02;20.67;;;11.77;;
9248;SDS011;4660;41.768;26.198;2023-12-28T01:01:28;19.13;;;12.23;;
9248;SDS011;4660;41.768;26.198;2023-12-28T01:03:56;17.00;;;10.33;;
9248;SDS011;4660;41.768;26.198;2023-12-28T01:06:21;19.80;;;10.70;;
9248;SDS011;4660;41.768;26.198;2023-12-28T01:08:47;19.87;;;10.57;;
9248;SDS011;4660;41.768;26.198;2023-12-28T01:11:12;12.93;;;7.33;;
9248;SDS011;4660;41.768;26.198;2023-12-28T01:13:38;11.17;;;6.47;;
9248;SDS011;4660;41.768;26.198;2023-12-28T01:16:03;10.93;;;6.20;;
9248;SDS011;4660;41.768;26.198;2023-12-28T01:18:29;12.30;;;6.23;;
9248;SDS011;4660;41.768;26.198;2023-12-28T01:20:55;14.17;;;7.40;;
9248;SDS011;4660;41.768;26.198;2023-12-28T01:23:20;15.33;;;8.93;;
9248;SDS011;4660;41.768;26.198;2023-12-28T01:25:46;17.43;;;9.63;;
9248;SDS011;4660;41.768;26.198;2023-12-28T01:28:12;15.60;;;9.97;;
9248;SDS011;4660;41.768;26.198;2023-12-28T01:30:37;15.43;;;8.97;;
9248;SDS011;4660;41.768;26.198;2023-12-28T01:33:03;17.17;;;10.83;;
9248;SDS011;4660;41.768;26.198;2023-12-28T01:35:29;22.10;;;11.33;;
9248;SDS011;4660;41.768;26.198;2023-12-28T01:37:54;19.40;;;11.80;;
9248;SDS011;4660;41.768;26.198;2023-12-28T01:40:20;20.53;;;12.20;;
9248;SDS011;4660;41.768;26.198;2023-12-28T01:42:45;21.67;;;12.50;;
9248;SDS011;4660;41.768;26.198;2023-12-28T01:45:11;25.53;;;18.13;;
9248;SDS011;4660;41.768;26.198;2023-12-28T01:47:36;23.20;;;14.47;;
9248;SDS011;4660;41.768;26.198;2023-12-28T01:50:02;23.47;;;16.77;;
9248;SDS011;4660;41.768;26.198;2023-12-28T01:52:30;23.07;;;13.90;;
9248;SDS011;4660;41.768;26.198;2023-12-28T01:54:56;16.87;;;12.13;;
9248;SDS011;4660;41.768;26.198;2023-12-28T01:57:22;18.03;;;11.53;;
9248;SDS011;4660;41.768;26.198;2023-12-28T01:59:47;17.90;;;9.87;;
9248;SDS011;4660;41.768;26.198;2023-12-28T02:02:13;12.43;;;8.70;;
9248;SDS011;4660;41.768;26.198;2023-12-28T02:04:39;18.37;;;9.60;;
9248;SDS011;4660;41.768;26.198;2023-12-28T02:07:05;23.83;;;12.27;;
9248;SDS011;4660;41.768;26.198;2023-12-28T02:09:30;20.57;;;9.70;;
9248;SDS011;4660;41.768;26.198;2023-12-28T02:11:56;16.27;;;10.23;;
9248;SDS011;4660;41.768;26.198;2023-12-28T02:14:21;22.13;;;10.13;;
9248;SDS011;4660;41.768;26.198;2023-12-28T02:17:04;16.87;;;11.33;;
9248;SDS011;4660;41.768;26.198;2023-12-28T02:19:54;23.37;;;13.77;;
9248;SDS011;4660;41.768;26.198;2023-12-28T02:22:23;24.50;;;13.47;;
9248;SDS011;4660;41.768;26.198;2023-12-28T02:25:05;22.83;;;12.70;;
9248;SDS011;4660;41.768;26.198;2023-12-28T02:27:46;17.27;;;11.23;;
9248;SDS011;4660;41.768;26.198;2023-12-28T02:30:15;15.00;;;10.10;;
9248;SDS011;4660;41.768;26.198;2023-12-28T02:38:08;12.63;;;9.70;;
9248;SDS011;4660;41.768;26.198;2023-12-28T02:40:42;17.03;;;9.60;;
9248;SDS011;4660;41.768;26.198;2023-12-28T02:43:11;14.33;;;9.53;;
9248;SDS011;4660;41.768;26.198;2023-12-28T02:45:38;11.40;;;8.00;;
9248;SDS011;4660;41.768;26.198;2023-12-28T02:48:04;15.10;;;9.10;;
9248;SDS011;4660;41.768;26.198;2023-12-28T02:50:30;12.57;;;8.00;;
9248;SDS011;4660;41.768;26.198;2023-12-28T02:52:57;18.67;;;9.20;;
9248;SDS011;4660;41.768;26.198;2023-12-28T02:55:23;14.83;;;8.30;;
9248;SDS011;4660;41.768;26.198;2023-12-28T02:57:49;12.17;;;8.70;;
9248;SDS011;4660;41.768;26.198;2023-12-28T03:00:16;12.63;;;8.73;;
9248;SDS011;4660;41.768;26.198;2023-12-28T03:02:41;9.60;;;8.00;;
9248;SDS011;4660;41.768;26.198;2023-12-28T03:05:07;11.77;;;7.93;;
9248;SDS011;4660;41.768;26.198;2023-12-28T03:07:33;13.67;;;8.83;;
9248;SDS011;4660;41.768;26.198;2023-12-28T03:09:59;14.63;;;8.73;;
9248;SDS011;4660;41.768;26.198;2023-12-28T03:12:25;15.47;;;8.07;;
9248;SDS011;4660;41.768;26.198;2023-12-28T03:14:52;13.50;;;7.80;;
9248;SDS011;4660;41.768;26.198;2023-12-28T03:17:17;14.07;;;8.80;;
9248;SDS011;4660;41.768;26.198;2023-12-28T03:19:43;12.87;;;7.97;;
9248;SDS011;4660;41.768;26.198;2023-12-28T03:22:08;11.30;;;7.23;;
9248;SDS011;4660;41.768;26.198;2023-12-28T03:24:36;11.83;;;7.33;;
9248;SDS011;4660;41.768;26.198;2023-12-28T03:27:03;10.83;;;8.07;;
9248;SDS011;4660;41.768;26.198;2023-12-28T03:29:29;13.40;;;7.90;;
9248;SDS011;4660;41.768;26.198;2023-12-28T03:31:54;15.53;;;7.90;;
9248;SDS011;4660;41.768;26.198;2023-12-28T03:34:20;14.30;;;8.00;;
9248;SDS011;4660;41.768;26.198;2023-12-28T03:36:47;13.33;;;8.67;;
9248;SDS011;4660;41.768;26.198;2023-12-28T03:39:12;10.33;;;6.87;;
9248;SDS011;4660;41.768;26.198;2023-12-28T03:41:38;9.23;;;6.60;;
9248;SDS011;4660;41.768;26.198;2023-12-28T03:44:03;9.60;;;7.27;;
9248;SDS011;4660;41.768;26.198;2023-12-28T03:46:29;14.07;;;7.27;;
9248;SDS011;4660;41.768;26.198;2023-12-28T03:48:55;10.80;;;6.10;;
9248;SDS011;4660;41.768;26.198;2023-12-28T03:51:20;10.53;;;6.63;;
9248;SDS011;4660;41.768;26.198;2023-12-28T03:53:46;7.20;;;5.33;;
9248;SDS011;4660;41.768;26.198;2023-12-28T03:56:24;10.53;;;6.63;;
9248;SDS011;4660;41.768;26.198;2023-12-28T03:58:51;17.67;;;8.63;;
9248;SDS011;4660;41.768;26.198;2023-12-28T04:01:17;11.23;;;7.20;;
9248;SDS011;4660;41.768;26.198;2023-12-28T04:03:44;15.10;;;8.13;;
9248;SDS011;4660;41.768;26.198;2023-12-28T04:06:10;10.03;;;7.03;;
9248;SDS011;4660;41.768;26.198;2023-12-28T04:08:37;12.73;;;7.73;;
9248;SDS011;4660;41.768;26.198;2023-12-28T04:11:03;12.33;;;7.87;;
9248;SDS011;4660;41.768;26.198;2023-12-28T04:13:29;15.33;;;7.57;;
9248;SDS011;4660;41.768;26.198;2023-12-28T04:15:54;12.53;;;8.00;;
9248;SDS011;4660;41.768;26.198;2023-12-28T04:18:20;14.07;;;7.90;;
9248;SDS011;4660;41.768;26.198;2023-12-28T04:20:45;14.70;;;8.13;;
9248;SDS011;4660;41.768;26.198;2023-12-28T04:23:11;16.87;;;10.57;;
9248;SDS011;4660;41.768;26.198;2023-12-28T04:25:36;16.30;;;10.27;;
9248;SDS011;4660;41.768;26.198;2023-12-28T04:28:02;13.73;;;10.13;;
9248;SDS011;4660;41.768;26.198;2023-12-28T04:30:28;15.70;;;11.57;;
9248;SDS011;4660;41.768;26.198;2023-12-28T04:32:53;12.83;;;10.30;;
9248;SDS011;4660;41.768;26.198;2023-12-28T04:35:19;16.17;;;12.53;;
9248;SDS011;4660;41.768;26.198;2023-12-28T04:37:44;16.90;;;12.40;;
9248;SDS011;4660;41.768;26.198;2023-12-28T04:40:10;17.60;;;11.27;;
9248;SDS011;4660;41.768;26.198;2023-12-28T04:42:35;14.67;;;11.07;;
9248;SDS011;4660;41.768;26.198;2023-12-28T04:45:01;18.63;;;14.20;;
9248;SDS011;4660;41.768;26.198;2023-12-28T04:47:27;13.73;;;10.23;;
9248;SDS011;4660;41.768;26.198;2023-12-28T04:49:52;10.70;;;7.50;;
9248;SDS011;4660;41.768;26.198;2023-12-28T04:52:18;14.13;;;7.70;;
9248;SDS011;4660;41.768;26.198;2023-12-28T04:54:43;27.87;;;14.23;;
9248;SDS011;4660;41.768;26.198;2023-12-28T04:57:09;29.23;;;14.47;;
9248;SDS011;4660;41.768;26.198;2023-12-28T04:59:39;18.27;;;9.33;;
9248;SDS011;4660;41.768;26.198;2023-12-28T05:02:05;20.13;;;11.33;;
9248;SDS011;4660;41.768;26.198;2023-12-28T05:04:30;21.77;;;10.90;;
9248;SDS011;4660;41.768;26.198;2023-12-28T05:06:56;16.80;;;11.47;;
9248;SDS011;4660;41.768;26.198;2023-12-28T05:09:22;20.10;;;15.87;;
9248;SDS011;4660;41.768;26.198;2023-12-28T05:11:47;16.83;;;12.57;;
9248;SDS011;4660;41.768;26.198;2023-12-28T05:14:12;30.07;;;15.30;;
9248;SDS011;4660;41.768;26.198;2023-12-28T05:16:38;51.23;;;22.30;;
9248;SDS011;4660;41.768;26.198;2023-12-28T05:19:03;27.37;;;15.57;;
9248;SDS011;4660;41.768;26.198;2023-12-28T05:21:29;21.83;;;14.73;;
9248;SDS011;4660;41.768;26.198;2023-12-28T05:23:54;15.67;;;11.70;;
9248;SDS011;4660;41.768;26.198;2023-12-28T05:26:20;15.60;;;11.23;;
9248;SDS011;4660;41.768;26.198;2023-12-28T05:28:46;13.53;;;10.53;;
9248;SDS011;4660;41.768;26.198;2023-12-28T05:31:11;15.07;;;10.20;;
9248;SDS011;4660;41.768;26.198;2023-12-28T05:33:38;13.33;;;10.33;;
9248;SDS011;4660;41.768;26.198;2023-12-28T05:36:04;13.50;;;10.67;;
9248;SDS011;4660;41.768;26.198;2023-12-28T05:38:30;19.17;;;13.10;;
9248;SDS011;4660;41.768;26.198;2023-12-28T05:40:56;19.80;;;13.93;;
9248;SDS011;4660;41.768;26.198;2023-12-28T05:43:21;71.27;;;42.40;;
9248;SDS011;4660;41.768;26.198;2023-12-28T05:45:47;162.60;;;88.90;;
9248;SDS011;4660;41.768;26.198;2023-12-28T05:48:12;115.10;;;63.63;;
9248;SDS011;4660;41.768;26.198;2023-12-28T05:50:38;94.30;;;52.70;;
9248;SDS011;4660;41.768;26.198;2023-12-28T05:53:03;63.70;;;40.63;;
9248;SDS011;4660;41.768;26.198;2023-12-28T05:55:29;34.27;;;23.00;;
9248;SDS011;4660;41.768;26.198;2023-12-28T05:57:54;41.23;;;23.87;;
9248;SDS011;4660;41.768;26.198;2023-12-28T06:00:20;25.67;;;17.53;;
9248;SDS011;4660;41.768;26.198;2023-12-28T06:02:45;24.53;;;15.13;;
9248;SDS011;4660;41.768;26.198;2023-12-28T06:05:12;25.00;;;15.20;;
9248;SDS011;4660;41.768;26.198;2023-12-28T06:07:37;20.60;;;13.97;;
9248;SDS011;4660;41.768;26.198;2023-12-28T06:10:03;23.37;;;13.27;;
9248;SDS011;4660;41.768;26.198;2023-12-28T06:12:29;22.47;;;13.70;;
9248;SDS011;4660;41.768;26.198;2023-12-28T06:14:55;25.63;;;13.30;;
9248;SDS011;4660;41.768;26.198;2023-12-28T06:17:20;19.77;;;12.47;;
9248;SDS011;4660;41.768;26.198;2023-12-28T06:19:46;18.97;;;13.00;;
9248;SDS011;4660;41.768;26.198;2023-12-28T06:22:11;20.00;;;12.93;;
9248;SDS011;4660;41.768;26.198;2023-12-28T06:24:37;20.83;;;12.90;;
9248;SDS011;4660;41.768;26.198;2023-12-28T06:27:04;19.63;;;13.40;;
9248;SDS011;4660;41.768;26.198;2023-12-28T06:29:30;20.73;;;14.03;;
9248;SDS011;4660;41.768;26.198;2023-12-28T06:31:55;20.17;;;14.37;;
9248;SDS011;4660;41.768;26.198;2023-12-28T06:34:21;19.87;;;12.93;;
9248;SDS011;4660;41.768;26.198;2023-12-28T06:36:46;19.30;;;12.50;;
9248;SDS011;4660;41.768;26.198;2023-12-28T06:39:12;17.43;;;13.23;;
9248;SDS011;4660;41.768;26.198;2023-12-28T06:41:38;18.87;;;12.53;;
9248;SDS011;4660;41.768;26.198;2023-12-28T06:44:04;13.60;;;11.67;;
9248;SDS011;4660;41.768;26.198;2023-12-28T06:46:29;22.83;;;12.87;;
9248;SDS011;4660;41.768;26.198;2023-12-28T06:48:55;14.03;;;10.87;;
9248;SDS011;4660;41.768;26.198;2023-12-28T06:51:24;14.20;;;11.37;;
9248;SDS011;4660;41.768;26.198;2023-12-28T06:53:49;13.07;;;10.83;;
9248;SDS011;4660;41.768;26.198;2023-12-28T06:56:15;13.90;;;11.33;;
9248;SDS011;4660;41.768;26.198;2023-12-28T06:58:40;13.03;;;10.10;;
9248;SDS011;4660;41.768;26.198;2023-12-28T07:01:07;13.40;;;11.30;;
9248;SDS011;4660;41.768;26.198;2023-12-28T07:03:32;18.83;;;12.80;;
9248;SDS011;4660;41.768;26.198;2023-12-28T07:05:58;24.03;;;14.57;;
9248;SDS011;4660;41.768;26.198;2023-12-28T07:08:24;23.63;;;14.30;;
9248;SDS011;4660;41.768;26.198;2023-12-28T07:10:50;19.43;;;14.27;;
9248;SDS011;4660;41.768;26.198;2023-12-28T07:13:16;20.07;;;14.43;;
9248;SDS011;4660;41.768;26.198;2023-12-28T07:15:41;22.30;;;13.70;;
9248;SDS011;4660;41.768;26.198;2023-12-28T07:18:07;20.83;;;13.87;;
9248;SDS011;4660;41.768;26.198;2023-12-28T07:20:32;19.70;;;14.37;;
9248;SDS011;4660;41.768;26.198;2023-12-28T07:22:58;18.20;;;13.63;;
9248;SDS011;4660;41.768;26.198;2023-12-28T07:25:23;19.23;;;13.97;;
9248;SDS011;4660;41.768;26.198;2023-12-28T07:27:49;16.93;;;12.77;;
9248;SDS011;4660;41.768;26.198;2023-12-28T07:30:14;20.17;;;13.53;;
9248;SDS011;4660;41.768;26.198;2023-12-28T07:32:41;18.93;;;14.83;;
9248;SDS011;4660;41.768;26.198;2023-12-28T07:35:07;18.60;;;13.77;;
9248;SDS011;4660;41.768;26.198;2023-12-28T07:37:33;19.40;;;12.30;;
9248;SDS011;4660;41.768;26.198;2023-12-28T07:40:00;18.13;;;13.87;;
9248;SDS011;4660;41.768;26.198;2023-12-28T07:42:26;20.20;;;14.40;;
9248;SDS011;4660;41.768;26.198;2023-12-28T07:44:52;26.53;;;16.77;;
9248;SDS011;4660;41.768;26.198;2023-12-28T07:47:17;37.30;;;19.47;;
9248;SDS011;4660;41.768;26.198;2023-12-28T07:49:43;30.73;;;18.60;;
9248;SDS011;4660;41.768;26.198;2023-12-28T07:52:08;24.13;;;15.17;;
9248;SDS011;4660;41.768;26.198;2023-12-28T07:54:34;17.00;;;13.37;;
9248;SDS011;4660;41.768;26.198;2023-12-28T07:56:59;19.73;;;13.83;;
9248;SDS011;4660;41.768;26.198;2023-12-28T07:59:25;20.23;;;13.60;;
9248;SDS011;4660;41.768;26.198;2023-12-28T08:01:51;27.60;;;14.80;;
9248;SDS011;4660;41.768;26.198;2023-12-28T08:04:16;22.37;;;14.77;;
9248;SDS011;4660;41.768;26.198;2023-12-28T08:06:42;22.23;;;15.10;;
9248;SDS011;4660;41.768;26.198;2023-12-28T08:09:07;20.77;;;14.63;;
9248;SDS011;4660;41.768;26.198;2023-12-28T08:11:34;30.03;;;21.13;;
9248;SDS011;4660;41.768;26.198;2023-12-28T08:14:00;19.13;;;13.70;;
9248;SDS011;4660;41.768;26.198;2023-12-28T08:16:25;20.30;;;13.60;;
9248;SDS011;4660;41.768;26.198;2023-12-28T08:18:51;19.80;;;13.67;;
9248;SDS011;4660;41.768;26.198;2023-12-28T08:21:17;19.30;;;13.17;;
9248;SDS011;4660;41.768;26.198;2023-12-28T08:23:43;16.40;;;12.80;;
9248;SDS011;4660;41.768;26.198;2023-12-28T08:26:09;18.03;;;13.27;;
9248;SDS011;4660;41.768;26.198;2023-12-28T08:28:35;22.37;;;13.93;;
9248;SDS011;4660;41.768;26.198;2023-12-28T08:31:01;23.07;;;14.70;;
9248;SDS011;4660;41.768;26.198;2023-12-28T08:33:27;23.63;;;13.90;;
9248;SDS011;4660;41.768;26.198;2023-12-28T08:35:52;17.43;;;12.90;;
9248;SDS011;4660;41.768;26.198;2023-12-28T08:38:19;18.77;;;13.63;;
9248;SDS011;4660;41.768;26.198;2023-12-28T08:40:45;19.03;;;13.33;;
9248;SDS011;4660;41.768;26.198;2023-12-28T08:43:10;18.20;;;12.87;;
9248;SDS011;4660;41.768;26.198;2023-12-28T08:45:36;24.47;;;14.80;;
9248;SDS011;4660;41.768;26.198;2023-12-28T08:48:02;24.07;;;13.93;;
9248;SDS011;4660;41.768;26.198;2023-12-28T08:50:28;24.43;;;14.17;;
9248;SDS011;4660;41.768;26.198;2023-12-28T08:52:53;17.57;;;12.93;;
9248;SDS011;4660;41.768;26.198;2023-12-28T08:55:19;19.97;;;12.73;;
9248;SDS011;4660;41.768;26.198;2023-12-28T08:57:45;17.53;;;12.70;;
9248;SDS011;4660;41.768;26.198;2023-12-28T09:00:11;17.40;;;13.10;;
9248;SDS011;4660;41.768;26.198;2023-12-28T09:02:39;16.13;;;11.33;;
9248;SDS011;4660;41.768;26.198;2023-12-28T09:05:05;14.37;;;11.90;;
9248;SDS011;4660;41.768;26.198;2023-12-28T09:07:31;18.70;;;11.43;;
9248;SDS011;4660;41.768;26.198;2023-12-28T09:09:57;13.40;;;10.73;;
9248;SDS011;4660;41.768;26.198;2023-12-28T09:12:22;12.73;;;9.53;;
9248;SDS011;4660;41.768;26.198;2023-12-28T09:14:48;14.70;;;9.37;;
9248;SDS011;4660;41.768;26.198;2023-12-28T09:17:13;14.37;;;10.20;;
9248;SDS011;4660;41.768;26.198;2023-12-28T09:19:39;13.10;;;9.73;;
9248;SDS011;4660;41.768;26.198;2023-12-28T09:22:09;12.10;;;9.63;;
9248;SDS011;4660;41.768;26.198;2023-12-28T09:24:34;13.40;;;9.73;;
9248;SDS011;4660;41.768;26.198;2023-12-28T09:27:00;12.57;;;9.73;;
9248;SDS011;4660;41.768;26.198;2023-12-28T09:29:25;14.30;;;9.70;;
9248;SDS011;4660;41.768;26.198;2023-12-28T09:31:51;11.87;;;9.90;;
9248;SDS011;4660;41.768;26.198;2023-12-28T09:34:18;11.97;;;9.07;;
9248;SDS011;4660;41.768;26.198;2023-12-28T09:36:44;14.17;;;10.17;;
9248;SDS011;4660;41.768;26.198;2023-12-28T09:39:09;18.27;;;11.40;;
9248;SDS011;4660;41.768;26.198;2023-12-28T09:41:39;13.30;;;10.30;;
9248;SDS011;4660;41.768;26.198;2023-12-28T09:44:13;14.00;;;10.00;;
9248;SDS011;4660;41.768;26.198;2023-12-28T09:46:42;16.53;;;11.57;;
9248;SDS011;4660;41.768;26.198;2023-12-28T09:49:10;19.07;;;11.60;;
9248;SDS011;4660;41.768;26.198;2023-12-28T09:51:36;18.10;;;11.73;;
9248;SDS011;4660;41.768;26.198;2023-12-28T09:54:04;19.73;;;11.90;;
9248;SDS011;4660;41.768;26.198;2023-12-28T09:56:30;19.10;;;11.57;;
9248;SDS011;4660;41.768;26.198;2023-12-28T09:58:57;21.10;;;13.47;;
9248;SDS011;4660;41.768;26.198;2023-12-28T10:01:23;25.10;;;13.20;;
9248;SDS011;4660;41.768;26.198;2023-12-28T10:03:49;20.33;;;14.07;;
9248;SDS011;4660;41.768;26.198;2023-12-28T10:06:15;24.87;;;14.37;;
9248;SDS011;4660;41.768;26.198;2023-12-28T10:08:45;25.27;;;13.93;;
9248;SDS011;4660;41.768;26.198;2023-12-28T10:11:14;22.27;;;15.90;;
9248;SDS011;4660;41.768;26.198;2023-12-28T10:13:41;26.87;;;15.37;;
9248;SDS011;4660;41.768;26.198;2023-12-28T10:16:08;19.80;;;11.63;;
9248;SDS011;4660;41.768;26.198;2023-12-28T10:18:36;16.87;;;11.13;;
9248;SDS011;4660;41.768;26.198;2023-12-28T10:21:01;14.70;;;9.77;;
9248;SDS011;4660;41.768;26.198;2023-12-28T10:23:27;14.90;;;10.23;;
9248;SDS011;4660;41.768;26.198;2023-12-28T10:25:55;13.40;;;8.83;;
9248;SDS011;4660;41.768;26.198;2023-12-28T10:28:21;12.23;;;8.10;;
9248;SDS011;4660;41.768;26.198;2023-12-28T10:30:47;13.83;;;8.37;;
9248;SDS011;4660;41.768;26.198;2023-12-28T10:33:13;13.20;;;8.47;;
9248;SDS011;4660;41.768;26.198;2023-12-28T10:35:39;8.70;;;6.53;;
9248;SDS011;4660;41.768;26.198;2023-12-28T10:38:05;12.17;;;7.40;;
9248;SDS011;4660;41.768;26.198;2023-12-28T10:40:34;10.53;;;7.13;;
9248;SDS011;4660;41.768;26.198;2023-12-28T10:43:02;15.87;;;8.70;;
9248;SDS011;4660;41.768;26.198;2023-12-28T10:45:34;14.63;;;8.60;;
9248;SDS011;4660;41.768;26.198;2023-12-28T10:48:06;12.70;;;8.37;;
9248;SDS011;4660;41.768;26.198;2023-12-28T10:50:38;14.80;;;8.90;;
9248;SDS011;4660;41.768;26.198;2023-12-28T10:59:22;17.00;;;8.70;;
9248;SDS011;4660;41.768;26.198;2023-12-28T11:02:18;14.47;;;7.93;;
9248;SDS011;4660;41.768;26.198;2023-12-28T11:04:50;11.40;;;7.67;;
9248;SDS011;4660;41.768;26.198;2023-12-28T11:07:18;13.00;;;7.17;;
9248;SDS011;4660;41.768;26.198;2023-12-28T11:09:46;12.03;;;6.77;;
9248;SDS011;4660;41.768;26.198;2023-12-28T11:12:13;8.53;;;5.60;;
9248;SDS011;4660;41.768;26.198;2023-12-28T11:14:43;9.80;;;5.90;;
9248;SDS011;4660;41.768;26.198;2023-12-28T11:17:10;7.67;;;4.67;;
9248;SDS011;4660;41.768;26.198;2023-12-28T11:19:40;14.30;;;5.87;;
9248;SDS011;4660;41.768;26.198;2023-12-28T11:22:06;12.17;;;5.27;;
9248;SDS011;4660;41.768;26.198;2023-12-28T11:24:32;6.07;;;4.23;;
9248;SDS011;4660;41.768;26.198;2023-12-28T11:26:59;6.50;;;3.40;;
9248;SDS011;4660;41.768;26.198;2023-12-28T11:29:24;8.43;;;4.50;;
9248;SDS011;4660;41.768;26.198;2023-12-28T11:31:53;8.47;;;4.63;;
9248;SDS011;4660;41.768;26.198;2023-12-28T11:34:25;7.50;;;4.07;;
9248;SDS011;4660;41.768;26.198;2023-12-28T11:36:56;9.20;;;4.67;;
9248;SDS011;4660;41.768;26.198;2023-12-28T11:39:34;8.67;;;4.83;;
9248;SDS011;4660;41.768;26.198;2023-12-28T11:42:05;9.40;;;5.33;;
9248;SDS011;4660;41.768;26.198;2023-12-28T11:44:43;6.30;;;4.20;;
9248;SDS011;4660;41.768;26.198;2023-12-28T11:47:12;9.23;;;4.80;;
9248;SDS011;4660;41.768;26.198;2023-12-28T11:49:48;8.90;;;5.37;;
9248;SDS011;4660;41.768;26.198;2023-12-28T11:52:23;9.23;;;5.13;;
9248;SDS011;4660;41.768;26.198;2023-12-28T11:54:50;7.77;;;5.03;;
9248;SDS011;4660;41.768;26.198;2023-12-28T11:57:20;6.27;;;4.40;;
9248;SDS011;4660;41.768;26.198;2023-12-28T11:59:51;9.97;;;5.50;;
9248;SDS011;4660;41.768;26.198;2023-12-28T12:02:19;10.10;;;5.07;;
9248;SDS011;4660;41.768;26.198;2023-12-28T12:04:45;8.83;;;4.70;;
9248;SDS011;4660;41.768;26.198;2023-12-28T12:07:11;7.37;;;4.17;;
9248;SDS011;4660;41.768;26.198;2023-12-28T12:09:37;7.63;;;4.23;;
9248;SDS011;4660;41.768;26.198;2023-12-28T12:12:02;6.17;;;4.03;;
9248;SDS011;4660;41.768;26.198;2023-12-28T12:14:29;7.03;;;3.33;;
9248;SDS011;4660;41.768;26.198;2023-12-28T12:16:55;4.93;;;3.20;;
9248;SDS011;4660;41.768;26.198;2023-12-28T12:19:23;6.67;;;3.63;;
9248;SDS011;4660;41.768;26.198;2023-12-28T12:21:51;5.53;;;3.80;;
9248;SDS011;4660;41.768;26.198;2023-12-28T12:24:18;6.73;;;3.53;;
9248;SDS011;4660;41.768;26.198;2023-12-28T12:26:47;6.97;;;3.33;;
9248;SDS011;4660;41.768;26.198;2023-12-28T12:29:15;8.40;;;3.60;;
9248;SDS011;4660;41.768;26.198;2023-12-28T12:31:46;5.77;;;3.83;;
9248;SDS011;4660;41.768;26.198;2023-12-28T12:34:16;10.27;;;4.10;;
9248;SDS011;4660;41.768;26.198;2023-12-28T12:36:47;4.77;;;3.57;;
9248;SDS011;4660;41.768;26.198;2023-12-28T12:39:14;5.60;;;3.90;;
9248;SDS011;4660;41.768;26.198;2023-12-28T12:41:39;8.23;;;4.33;;
9248;SDS011;4660;41.768;26.198;2023-12-28T12:44:05;6.40;;;3.57;;
9248;SDS011;4660;41.768;26.198;2023-12-28T12:46:32;5.90;;;3.90;;
9248;SDS011;4660;41.768;26.198;2023-12-28T12:48:58;6.10;;;3.63;;
9248;SDS011;4660;41.768;26.198;2023-12-28T12:51:26;7.87;;;3.40;;
9248;SDS011;4660;41.768;26.198;2023-12-28T12:53:56;11.43;;;3.73;;
9248;SDS011;4660;41.768;26.198;2023-12-28T12:56:25;7.07;;;3.67;;
9248;SDS011;4660;41.768;26.198;2023-12-28T12:58:52;6.43;;;4.40;;
9248;SDS011;4660;41.768;26.198;2023-12-28T13:01:18;10.17;;;4.03;;
9248;SDS011;4660;41.768;26.198;2023-12-28T13:03:45;7.63;;;3.93;;
9248;SDS011;4660;41.768;26.198;2023-12-28T13:06:11;6.97;;;4.00;;
9248;SDS011;4660;41.768;26.198;2023-12-28T13:08:37;9.07;;;4.80;;
9248;SDS011;4660;41.768;26.198;2023-12-28T13:11:03;6.70;;;4.47;;
9248;SDS011;4660;41.768;26.198;2023-12-28T13:13:32;7.87;;;4.10;;
9248;SDS011;4660;41.768;26.198;2023-12-28T13:16:01;7.00;;;3.80;;
9248;SDS011;4660;41.768;26.198;2023-12-28T13:18:27;6.40;;;3.50;;
9248;SDS011;4660;41.768;26.198;2023-12-28T13:20:53;7.63;;;4.73;;
9248;SDS011;4660;41.768;26.198;2023-12-28T13:23:18;9.17;;;4.80;;
9248;SDS011;4660;41.768;26.198;2023-12-28T13:25:44;8.87;;;5.20;;
9248;SDS011;4660;41.768;26.198;2023-12-28T13:28:10;9.37;;;5.53;;
9248;SDS011;4660;41.768;26.198;2023-12-28T13:30:37;7.50;;;5.10;;
9248;SDS011;4660;41.768;26.198;2023-12-28T13:33:03;8.20;;;4.03;;
9248;SDS011;4660;41.768;26.198;2023-12-28T13:35:30;6.93;;;3.70;;
9248;SDS011;4660;41.768;26.198;2023-12-28T13:37:57;8.93;;;4.60;;
9248;SDS011;4660;41.768;26.198;2023-12-28T13:40:22;6.80;;;4.27;;
9248;SDS011;4660;41.768;26.198;2023-12-28T13:42:48;6.53;;;4.53;;
9248;SDS011;4660;41.768;26.198;2023-12-28T13:45:14;8.43;;;5.03;;
9248;SDS011;4660;41.768;26.198;2023-12-28T13:47:39;11.23;;;5.93;;
9248;SDS011;4660;41.768;26.198;2023-12-28T13:50:06;8.93;;;6.33;;
9248;SDS011;4660;41.768;26.198;2023-12-28T13:52:32;9.27;;;5.90;;
9248;SDS011;4660;41.768;26.198;2023-12-28T13:54:57;12.30;;;7.40;;
9248;SDS011;4660;41.768;26.198;2023-12-28T13:57:23;15.87;;;6.07;;
9248;SDS011;4660;41.768;26.198;2023-12-28T13:59:48;10.77;;;6.67;;
9248;SDS011;4660;41.768;26.198;2023-12-28T14:02:14;12.23;;;6.50;;
9248;SDS011;4660;41.768;26.198;2023-12-28T14:04:39;12.03;;;7.40;;
9248;SDS011;4660;41.768;26.198;2023-12-28T14:07:05;9.80;;;6.90;;
9248;SDS011;4660;41.768;26.198;2023-12-28T14:09:30;14.37;;;7.47;;
9248;SDS011;4660;41.768;26.198;2023-12-28T14:11:58;11.53;;;7.43;;
9248;SDS011;4660;41.768;26.198;2023-12-28T14:14:24;16.53;;;8.27;;
9248;SDS011;4660;41.768;26.198;2023-12-28T14:16:50;14.00;;;8.40;;
9248;SDS011;4660;41.768;26.198;2023-12-28T14:19:15;16.37;;;8.43;;
9248;SDS011;4660;41.768;26.198;2023-12-28T14:21:41;15.27;;;9.00;;
9248;SDS011;4660;41.768;26.198;2023-12-28T14:24:07;23.37;;;12.30;;
9248;SDS011;4660;41.768;26.198;2023-12-28T14:26:33;25.27;;;13.40;;
9248;SDS011;4660;41.768;26.198;2023-12-28T14:29:09;32.87;;;18.33;;
9248;SDS011;4660;41.768;26.198;2023-12-28T14:31:35;51.80;;;28.60;;
9248;SDS011;4660;41.768;26.198;2023-12-28T14:34:01;32.63;;;18.53;;
9248;SDS011;4660;41.768;26.198;2023-12-28T14:36:31;27.83;;;16.57;;
9248;SDS011;4660;41.768;26.198;2023-12-28T14:39:01;22.73;;;14.37;;
9248;SDS011;4660;41.768;26.198;2023-12-28T14:41:30;23.93;;;14.17;;
9248;SDS011;4660;41.768;26.198;2023-12-28T14:43:55;26.97;;;15.40;;
9248;SDS011;4660;41.768;26.198;2023-12-28T14:46:25;28.13;;;16.33;;
9248;SDS011;4660;41.768;26.198;2023-12-28T14:48:51;30.73;;;16.17;;
9248;SDS011;4660;41.768;26.198;2023-12-28T14:51:25;28.10;;;13.60;;